sensor_id;sensor_type;location;lat;lon;timestamp;P1;durP1;ratioP1;P2;durP2;ratioP2
51556;SDS011;38766;53.194;5.532;2023-02-11T00:00:12;27.98;;;7.88;;
51556;SDS011;38766;53.194;5.532;2023-02-11T00:02:38;28.17;;;8.98;;
51556;SDS011;38766;53.194;5.532;2023-02-11T00:05:04;24.42;;;8.85;;
51556;SDS011;38766;53.194;5.532;2023-02-11T00:07:30;29.88;;;8.40;;
51556;SDS011;38766;53.194;5.532;2023-02-11T00:09:57;29.33;;;9.38;;
51556;SDS011;38766;53.194;5.532;2023-02-11T00:12:23;28.85;;;7.60;;
51556;SDS011;38766;53.194;5.532;2023-02-11T00:14:49;33.08;;;8.52;;
51556;SDS011;38766;53.194;5.532;2023-02-11T00:17:15;29.60;;;8.75;;
51556;SDS011;38766;53.194;5.532;2023-02-11T00:19:41;29.77;;;9.77;;
51556;SDS011;38766;53.194;5.532;2023-02-11T00:22:06;30.35;;;10.23;;
51556;SDS011;38766;53.194;5.532;2023-02-11T00:24:32;33.22;;;9.23;;
51556;SDS011;38766;53.194;5.532;2023-02-11T00:26:58;20.65;;;9.25;;
51556;SDS011;38766;53.194;5.532;2023-02-11T00:29:23;29.67;;;8.45;;
51556;SDS011;38766;53.194;5.532;2023-02-11T00:31:49;29.27;;;10.07;;
51556;SDS011;38766;53.194;5.532;2023-02-11T00:34:15;30.40;;;9.90;;
51556;SDS011;38766;53.194;5.532;2023-02-11T00:36:40;30.60;;;10.27;;
51556;SDS011;38766;53.194;5.532;2023-02-11T00:39:06;31.48;;;9.90;;
51556;SDS011;38766;53.194;5.532;2023-02-11T00:41:32;28.90;;;9.82;;
51556;SDS011;38766;53.194;5.532;2023-02-11T00:43:59;32.60;;;11.30;;
51556;SDS011;38766;53.194;5.532;2023-02-11T00:46:25;31.65;;;12.05;;
51556;SDS011;38766;53.194;5.532;2023-02-11T00:48:51;29.40;;;12.07;;
51556;SDS011;38766;53.194;5.532;2023-02-11T00:51:19;33.40;;;11.95;;
51556;SDS011;38766;53.194;5.532;2023-02-11T00:53:45;24.17;;;11.13;;
51556;SDS011;38766;53.194;5.532;2023-02-11T00:56:10;27.98;;;10.35;;
51556;SDS011;38766;53.194;5.532;2023-02-11T00:58:36;32.60;;;11.30;;
51556;SDS011;38766;53.194;5.532;2023-02-11T01:01:02;28.05;;;11.48;;
51556;SDS011;38766;53.194;5.532;2023-02-11T01:03:28;35.67;;;12.15;;
51556;SDS011;38766;53.194;5.532;2023-02-11T01:05:54;27.52;;;11.52;;
51556;SDS011;38766;53.194;5.532;2023-02-11T01:08:20;37.65;;;10.73;;
51556;SDS011;38766;53.194;5.532;2023-02-11T01:11:00;27.48;;;11.52;;
51556;SDS011;38766;53.194;5.532;2023-02-11T01:13:26;30.73;;;11.60;;
51556;SDS011;38766;53.194;5.532;2023-02-11T01:15:54;28.70;;;12.18;;
51556;SDS011;38766;53.194;5.532;2023-02-11T01:18:20;26.00;;;11.27;;
51556;SDS011;38766;53.194;5.532;2023-02-11T01:20:45;32.97;;;11.63;;
51556;SDS011;38766;53.194;5.532;2023-02-11T01:23:11;26.25;;;12.05;;
51556;SDS011;38766;53.194;5.532;2023-02-11T01:25:37;26.27;;;12.15;;
51556;SDS011;38766;53.194;5.532;2023-02-11T01:28:02;27.95;;;11.27;;
51556;SDS011;38766;53.194;5.532;2023-02-11T01:30:28;36.08;;;13.43;;
51556;SDS011;38766;53.194;5.532;2023-02-11T01:32:54;31.27;;;12.25;;
51556;SDS011;38766;53.194;5.532;2023-02-11T01:35:20;32.63;;;12.75;;
51556;SDS011;38766;53.194;5.532;2023-02-11T01:37:45;30.80;;;12.15;;
51556;SDS011;38766;53.194;5.532;2023-02-11T01:40:12;30.60;;;13.15;;
51556;SDS011;38766;53.194;5.532;2023-02-11T01:42:40;34.92;;;12.10;;
51556;SDS011;38766;53.194;5.532;2023-02-11T01:48:27;31.80;;;13.07;;
51556;SDS011;38766;53.194;5.532;2023-02-11T01:51:06;34.90;;;13.18;;
51556;SDS011;38766;53.194;5.532;2023-02-11T01:53:37;27.00;;;12.35;;
51556;SDS011;38766;53.194;5.532;2023-02-11T01:56:22;33.22;;;14.18;;
51556;SDS011;38766;53.194;5.532;2023-02-11T01:59:10;31.65;;;13.10;;
51556;SDS011;38766;53.194;5.532;2023-02-11T02:01:41;34.17;;;13.75;;
51556;SDS011;38766;53.194;5.532;2023-02-11T02:04:11;32.63;;;13.40;;
51556;SDS011;38766;53.194;5.532;2023-02-11T02:06:48;35.78;;;13.32;;
51556;SDS011;38766;53.194;5.532;2023-02-11T02:09:20;34.13;;;14.00;;
51556;SDS011;38766;53.194;5.532;2023-02-11T02:11:51;28.92;;;13.18;;
51556;SDS011;38766;53.194;5.532;2023-02-11T02:14:17;32.67;;;14.77;;
51556;SDS011;38766;53.194;5.532;2023-02-11T02:16:44;30.25;;;14.88;;
51556;SDS011;38766;53.194;5.532;2023-02-11T02:27:48;38.30;;;15.02;;
51556;SDS011;38766;53.194;5.532;2023-02-11T02:33:36;32.58;;;16.65;;
51556;SDS011;38766;53.194;5.532;2023-02-11T02:35:47;33.28;;;15.60;;
51556;SDS011;38766;53.194;5.532;2023-02-11T02:38:36;39.07;;;16.23;;
51556;SDS011;38766;53.194;5.532;2023-02-11T02:41:08;38.05;;;16.38;;
51556;SDS011;38766;53.194;5.532;2023-02-11T02:43:39;33.28;;;15.55;;
51556;SDS011;38766;53.194;5.532;2023-02-11T02:48:42;35.47;;;16.98;;
51556;SDS011;38766;53.194;5.532;2023-02-11T02:56:43;39.72;;;16.73;;
51556;SDS011;38766;53.194;5.532;2023-02-11T02:59:27;38.00;;;18.33;;
51556;SDS011;38766;53.194;5.532;2023-02-11T03:05:16;35.28;;;18.52;;
51556;SDS011;38766;53.194;5.532;2023-02-11T03:10:47;30.95;;;17.70;;
51556;SDS011;38766;53.194;5.532;2023-02-11T03:13:15;37.90;;;18.83;;
51556;SDS011;38766;53.194;5.532;2023-02-11T03:15:44;42.92;;;18.65;;
51556;SDS011;38766;53.194;5.532;2023-02-11T03:18:14;40.45;;;19.02;;
51556;SDS011;38766;53.194;5.532;2023-02-11T03:20:43;43.00;;;19.40;;
51556;SDS011;38766;53.194;5.532;2023-02-11T03:26:09;38.42;;;17.75;;
51556;SDS011;38766;53.194;5.532;2023-02-11T03:31:19;37.40;;;17.75;;
51556;SDS011;38766;53.194;5.532;2023-02-11T03:34:05;41.03;;;18.48;;
51556;SDS011;38766;53.194;5.532;2023-02-11T03:36:38;45.08;;;18.02;;
51556;SDS011;38766;53.194;5.532;2023-02-11T03:39:15;43.53;;;17.80;;
51556;SDS011;38766;53.194;5.532;2023-02-11T03:42:07;34.40;;;17.67;;
51556;SDS011;38766;53.194;5.532;2023-02-11T03:44:39;35.97;;;18.48;;
51556;SDS011;38766;53.194;5.532;2023-02-11T03:47:10;34.17;;;16.92;;
51556;SDS011;38766;53.194;5.532;2023-02-11T03:49:39;32.00;;;16.88;;
51556;SDS011;38766;53.194;5.532;2023-02-11T03:52:06;36.78;;;18.02;;
51556;SDS011;38766;53.194;5.532;2023-02-11T03:54:35;35.53;;;16.90;;
51556;SDS011;38766;53.194;5.532;2023-02-11T03:57:04;34.15;;;15.75;;
51556;SDS011;38766;53.194;5.532;2023-02-11T03:59:30;34.95;;;17.48;;
51556;SDS011;38766;53.194;5.532;2023-02-11T04:01:55;34.90;;;17.20;;
51556;SDS011;38766;53.194;5.532;2023-02-11T04:04:23;41.03;;;17.67;;
51556;SDS011;38766;53.194;5.532;2023-02-11T04:06:49;37.53;;;16.48;;
51556;SDS011;38766;53.194;5.532;2023-02-11T04:09:14;38.05;;;16.42;;
51556;SDS011;38766;53.194;5.532;2023-02-11T04:11:40;29.65;;;14.85;;
51556;SDS011;38766;53.194;5.532;2023-02-11T04:14:05;31.95;;;15.45;;
51556;SDS011;38766;53.194;5.532;2023-02-11T04:16:31;31.70;;;15.90;;
51556;SDS011;38766;53.194;5.532;2023-02-11T04:18:57;33.25;;;15.35;;
51556;SDS011;38766;53.194;5.532;2023-02-11T04:21:22;38.65;;;14.88;;
51556;SDS011;38766;53.194;5.532;2023-02-11T04:23:48;34.88;;;15.82;;
51556;SDS011;38766;53.194;5.532;2023-02-11T04:26:13;33.45;;;15.73;;
51556;SDS011;38766;53.194;5.532;2023-02-11T04:28:39;38.20;;;14.85;;
51556;SDS011;38766;53.194;5.532;2023-02-11T04:31:05;34.85;;;15.30;;
51556;SDS011;38766;53.194;5.532;2023-02-11T04:33:30;35.33;;;16.25;;
51556;SDS011;38766;53.194;5.532;2023-02-11T04:35:56;33.25;;;15.25;;
51556;SDS011;38766;53.194;5.532;2023-02-11T04:38:21;33.83;;;15.48;;
51556;SDS011;38766;53.194;5.532;2023-02-11T04:40:53;34.75;;;15.60;;
51556;SDS011;38766;53.194;5.532;2023-02-11T04:43:19;35.00;;;14.65;;
51556;SDS011;38766;53.194;5.532;2023-02-11T04:45:44;31.10;;;14.90;;
51556;SDS011;38766;53.194;5.532;2023-02-11T04:48:10;29.27;;;14.80;;
51556;SDS011;38766;53.194;5.532;2023-02-11T04:50:35;29.27;;;14.52;;
51556;SDS011;38766;53.194;5.532;2023-02-11T04:53:01;28.50;;;14.73;;
51556;SDS011;38766;53.194;5.532;2023-02-11T04:55:27;28.77;;;14.63;;
51556;SDS011;38766;53.194;5.532;2023-02-11T04:57:52;33.67;;;15.98;;
51556;SDS011;38766;53.194;5.532;2023-02-11T05:00:19;28.75;;;13.35;;
51556;SDS011;38766;53.194;5.532;2023-02-11T05:02:45;27.30;;;15.57;;
51556;SDS011;38766;53.194;5.532;2023-02-11T05:05:10;37.60;;;16.52;;
51556;SDS011;38766;53.194;5.532;2023-02-11T05:07:36;32.70;;;16.50;;
51556;SDS011;38766;53.194;5.532;2023-02-11T05:10:02;28.65;;;15.70;;
51556;SDS011;38766;53.194;5.532;2023-02-11T05:12:28;32.53;;;15.73;;
51556;SDS011;38766;53.194;5.532;2023-02-11T05:14:54;27.92;;;16.95;;
51556;SDS011;38766;53.194;5.532;2023-02-11T05:17:19;30.10;;;16.35;;
51556;SDS011;38766;53.194;5.532;2023-02-11T05:19:45;29.90;;;15.63;;
51556;SDS011;38766;53.194;5.532;2023-02-11T05:22:10;32.13;;;15.98;;
51556;SDS011;38766;53.194;5.532;2023-02-11T05:24:36;32.45;;;15.18;;
51556;SDS011;38766;53.194;5.532;2023-02-11T05:27:02;33.25;;;16.52;;
51556;SDS011;38766;53.194;5.532;2023-02-11T05:29:27;32.00;;;15.55;;
51556;SDS011;38766;53.194;5.532;2023-02-11T05:31:53;41.13;;;16.45;;
51556;SDS011;38766;53.194;5.532;2023-02-11T05:34:19;32.10;;;15.73;;
51556;SDS011;38766;53.194;5.532;2023-02-11T05:36:44;31.27;;;15.55;;
51556;SDS011;38766;53.194;5.532;2023-02-11T05:39:10;32.55;;;15.52;;
51556;SDS011;38766;53.194;5.532;2023-02-11T05:41:36;38.50;;;15.07;;
51556;SDS011;38766;53.194;5.532;2023-02-11T05:44:02;33.00;;;16.20;;
51556;SDS011;38766;53.194;5.532;2023-02-11T05:46:28;31.60;;;15.85;;
51556;SDS011;38766;53.194;5.532;2023-02-11T05:48:53;36.63;;;15.25;;
51556;SDS011;38766;53.194;5.532;2023-02-11T05:51:20;37.90;;;14.75;;
51556;SDS011;38766;53.194;5.532;2023-02-11T05:53:46;31.58;;;15.45;;
51556;SDS011;38766;53.194;5.532;2023-02-11T05:56:12;46.33;;;15.68;;
51556;SDS011;38766;53.194;5.532;2023-02-11T05:58:38;32.90;;;15.98;;
51556;SDS011;38766;53.194;5.532;2023-02-11T06:01:04;34.13;;;15.25;;
51556;SDS011;38766;53.194;5.532;2023-02-11T06:03:30;34.22;;;14.73;;
51556;SDS011;38766;53.194;5.532;2023-02-11T06:05:56;33.00;;;16.30;;
51556;SDS011;38766;53.194;5.532;2023-02-11T06:08:21;35.63;;;16.00;;
51556;SDS011;38766;53.194;5.532;2023-02-11T06:10:47;34.80;;;15.68;;
51556;SDS011;38766;53.194;5.532;2023-02-11T06:13:12;39.50;;;15.70;;
51556;SDS011;38766;53.194;5.532;2023-02-11T06:15:38;35.15;;;16.63;;
51556;SDS011;38766;53.194;5.532;2023-02-11T06:18:04;29.73;;;15.23;;
51556;SDS011;38766;53.194;5.532;2023-02-11T06:20:29;36.80;;;15.95;;
51556;SDS011;38766;53.194;5.532;2023-02-11T06:22:55;35.67;;;16.13;;
51556;SDS011;38766;53.194;5.532;2023-02-11T06:25:21;35.95;;;16.77;;
51556;SDS011;38766;53.194;5.532;2023-02-11T06:27:47;40.45;;;16.75;;
51556;SDS011;38766;53.194;5.532;2023-02-11T06:30:13;36.38;;;16.58;;
51556;SDS011;38766;53.194;5.532;2023-02-11T06:32:38;32.47;;;15.07;;
51556;SDS011;38766;53.194;5.532;2023-02-11T06:35:04;34.10;;;17.27;;
51556;SDS011;38766;53.194;5.532;2023-02-11T06:37:30;37.63;;;17.65;;
51556;SDS011;38766;53.194;5.532;2023-02-11T06:39:57;36.05;;;15.98;;
51556;SDS011;38766;53.194;5.532;2023-02-11T06:42:23;31.60;;;15.90;;
51556;SDS011;38766;53.194;5.532;2023-02-11T06:44:48;37.00;;;15.70;;
51556;SDS011;38766;53.194;5.532;2023-02-11T06:47:14;37.33;;;16.48;;
51556;SDS011;38766;53.194;5.532;2023-02-11T06:49:39;35.38;;;15.32;;
51556;SDS011;38766;53.194;5.532;2023-02-11T06:52:05;40.92;;;16.45;;
51556;SDS011;38766;53.194;5.532;2023-02-11T06:54:31;31.77;;;15.52;;
51556;SDS011;38766;53.194;5.532;2023-02-11T06:56:56;35.25;;;16.08;;
51556;SDS011;38766;53.194;5.532;2023-02-11T06:59:22;35.35;;;15.95;;
51556;SDS011;38766;53.194;5.532;2023-02-11T07:01:47;28.88;;;14.93;;
51556;SDS011;38766;53.194;5.532;2023-02-11T07:04:13;28.10;;;15.48;;
51556;SDS011;38766;53.194;5.532;2023-02-11T07:06:39;32.67;;;14.88;;
51556;SDS011;38766;53.194;5.532;2023-02-11T07:09:05;29.27;;;15.13;;
51556;SDS011;38766;53.194;5.532;2023-02-11T07:11:32;34.58;;;14.13;;
51556;SDS011;38766;53.194;5.532;2023-02-11T07:14:02;32.97;;;14.93;;
51556;SDS011;38766;53.194;5.532;2023-02-11T07:16:30;27.95;;;15.68;;
51556;SDS011;38766;53.194;5.532;2023-02-11T07:18:56;37.65;;;15.55;;
51556;SDS011;38766;53.194;5.532;2023-02-11T07:21:22;30.10;;;13.70;;
51556;SDS011;38766;53.194;5.532;2023-02-11T07:23:50;34.60;;;14.65;;
51556;SDS011;38766;53.194;5.532;2023-02-11T07:26:17;33.28;;;14.70;;
51556;SDS011;38766;53.194;5.532;2023-02-11T07:28:46;32.15;;;14.68;;
51556;SDS011;38766;53.194;5.532;2023-02-11T07:31:13;32.40;;;15.23;;
51556;SDS011;38766;53.194;5.532;2023-02-11T07:33:41;28.20;;;13.43;;
51556;SDS011;38766;53.194;5.532;2023-02-11T07:36:07;33.72;;;13.43;;
51556;SDS011;38766;53.194;5.532;2023-02-11T07:38:34;27.70;;;13.30;;
51556;SDS011;38766;53.194;5.532;2023-02-11T07:41:03;27.25;;;13.13;;
51556;SDS011;38766;53.194;5.532;2023-02-11T07:43:34;35.90;;;14.35;;
51556;SDS011;38766;53.194;5.532;2023-02-11T07:46:02;31.77;;;13.50;;
51556;SDS011;38766;53.194;5.532;2023-02-11T07:48:29;28.05;;;13.45;;
51556;SDS011;38766;53.194;5.532;2023-02-11T07:50:54;31.02;;;12.68;;
51556;SDS011;38766;53.194;5.532;2023-02-11T07:53:20;29.60;;;12.20;;
51556;SDS011;38766;53.194;5.532;2023-02-11T07:55:46;28.42;;;13.05;;
51556;SDS011;38766;53.194;5.532;2023-02-11T07:58:12;28.27;;;12.70;;
51556;SDS011;38766;53.194;5.532;2023-02-11T08:00:37;25.30;;;12.77;;
51556;SDS011;38766;53.194;5.532;2023-02-11T08:03:03;31.30;;;13.40;;
51556;SDS011;38766;53.194;5.532;2023-02-11T08:05:30;36.65;;;14.85;;
51556;SDS011;38766;53.194;5.532;2023-02-11T08:07:56;28.90;;;12.98;;
51556;SDS011;38766;53.194;5.532;2023-02-11T08:10:21;29.83;;;13.70;;
51556;SDS011;38766;53.194;5.532;2023-02-11T08:12:47;30.63;;;13.38;;
51556;SDS011;38766;53.194;5.532;2023-02-11T08:15:13;29.23;;;13.77;;
51556;SDS011;38766;53.194;5.532;2023-02-11T08:17:38;34.78;;;14.10;;
51556;SDS011;38766;53.194;5.532;2023-02-11T08:20:04;36.08;;;14.27;;
51556;SDS011;38766;53.194;5.532;2023-02-11T08:22:31;31.58;;;14.00;;
51556;SDS011;38766;53.194;5.532;2023-02-11T08:24:58;28.10;;;11.38;;
51556;SDS011;38766;53.194;5.532;2023-02-11T08:27:24;30.35;;;12.38;;
51556;SDS011;38766;53.194;5.532;2023-02-11T08:29:51;24.85;;;11.55;;
51556;SDS011;38766;53.194;5.532;2023-02-11T08:32:17;28.25;;;12.23;;
51556;SDS011;38766;53.194;5.532;2023-02-11T08:34:43;31.23;;;12.63;;
51556;SDS011;38766;53.194;5.532;2023-02-11T08:37:09;30.30;;;12.02;;
51556;SDS011;38766;53.194;5.532;2023-02-11T08:39:35;32.95;;;11.77;;
51556;SDS011;38766;53.194;5.532;2023-02-11T08:42:01;25.98;;;10.18;;
51556;SDS011;38766;53.194;5.532;2023-02-11T08:44:26;30.90;;;11.70;;
51556;SDS011;38766;53.194;5.532;2023-02-11T08:46:53;22.90;;;10.95;;
51556;SDS011;38766;53.194;5.532;2023-02-11T08:49:22;25.98;;;10.70;;
51556;SDS011;38766;53.194;5.532;2023-02-11T08:51:47;30.23;;;10.68;;
51556;SDS011;38766;53.194;5.532;2023-02-11T08:54:14;28.42;;;10.77;;
51556;SDS011;38766;53.194;5.532;2023-02-11T08:56:39;22.88;;;9.55;;
51556;SDS011;38766;53.194;5.532;2023-02-11T08:59:05;23.70;;;9.90;;
51556;SDS011;38766;53.194;5.532;2023-02-11T09:01:33;26.67;;;9.27;;
51556;SDS011;38766;53.194;5.532;2023-02-11T09:03:59;25.98;;;9.95;;
51556;SDS011;38766;53.194;5.532;2023-02-11T09:06:25;18.20;;;8.60;;
51556;SDS011;38766;53.194;5.532;2023-02-11T09:08:53;29.40;;;10.00;;
51556;SDS011;38766;53.194;5.532;2023-02-11T09:11:24;26.10;;;9.40;;
51556;SDS011;38766;53.194;5.532;2023-02-11T09:13:52;21.42;;;8.13;;
51556;SDS011;38766;53.194;5.532;2023-02-11T09:16:19;28.88;;;8.70;;
51556;SDS011;38766;53.194;5.532;2023-02-11T09:18:46;20.98;;;7.85;;
51556;SDS011;38766;53.194;5.532;2023-02-11T09:21:15;22.80;;;8.63;;
51556;SDS011;38766;53.194;5.532;2023-02-11T09:23:42;20.85;;;8.38;;
51556;SDS011;38766;53.194;5.532;2023-02-11T09:26:16;20.20;;;8.35;;
51556;SDS011;38766;53.194;5.532;2023-02-11T09:28:48;17.77;;;7.43;;
51556;SDS011;38766;53.194;5.532;2023-02-11T09:31:17;21.13;;;7.97;;
51556;SDS011;38766;53.194;5.532;2023-02-11T09:33:45;20.38;;;8.20;;
51556;SDS011;38766;53.194;5.532;2023-02-11T09:36:34;20.13;;;7.78;;
51556;SDS011;38766;53.194;5.532;2023-02-11T09:39:00;21.98;;;7.53;;
51556;SDS011;38766;53.194;5.532;2023-02-11T09:41:32;20.95;;;7.35;;
51556;SDS011;38766;53.194;5.532;2023-02-11T09:44:05;21.55;;;7.70;;
51556;SDS011;38766;53.194;5.532;2023-02-11T09:46:35;26.67;;;8.30;;
51556;SDS011;38766;53.194;5.532;2023-02-11T09:49:05;23.75;;;7.35;;
51556;SDS011;38766;53.194;5.532;2023-02-11T09:51:48;18.10;;;6.80;;
51556;SDS011;38766;53.194;5.532;2023-02-11T09:54:28;21.70;;;8.32;;
51556;SDS011;38766;53.194;5.532;2023-02-11T09:57:14;21.48;;;7.32;;
51556;SDS011;38766;53.194;5.532;2023-02-11T09:59:41;19.50;;;6.90;;
51556;SDS011;38766;53.194;5.532;2023-02-11T10:02:28;25.27;;;7.85;;
51556;SDS011;38766;53.194;5.532;2023-02-11T10:07:47;20.15;;;6.63;;
51556;SDS011;38766;53.194;5.532;2023-02-11T10:13:03;21.45;;;6.93;;
51556;SDS011;38766;53.194;5.532;2023-02-11T10:18:49;21.38;;;6.60;;
51556;SDS011;38766;53.194;5.532;2023-02-11T10:24:02;15.23;;;5.40;;
51556;SDS011;38766;53.194;5.532;2023-02-11T10:26:34;14.25;;;5.63;;
51556;SDS011;38766;53.194;5.532;2023-02-11T10:29:01;15.73;;;5.18;;
51556;SDS011;38766;53.194;5.532;2023-02-11T10:31:38;18.13;;;6.00;;
51556;SDS011;38766;53.194;5.532;2023-02-11T10:34:11;17.40;;;5.05;;
51556;SDS011;38766;53.194;5.532;2023-02-11T10:36:42;18.60;;;5.53;;
51556;SDS011;38766;53.194;5.532;2023-02-11T10:39:15;20.25;;;5.32;;
51556;SDS011;38766;53.194;5.532;2023-02-11T10:41:44;16.13;;;5.10;;
51556;SDS011;38766;53.194;5.532;2023-02-11T10:44:25;14.80;;;4.60;;
51556;SDS011;38766;53.194;5.532;2023-02-11T10:46:58;17.17;;;4.65;;
51556;SDS011;38766;53.194;5.532;2023-02-11T10:49:34;13.90;;;4.32;;
51556;SDS011;38766;53.194;5.532;2023-02-11T10:57:03;15.35;;;4.32;;
51556;SDS011;38766;53.194;5.532;2023-02-11T10:59:32;14.55;;;5.20;;
51556;SDS011;38766;53.194;5.532;2023-02-11T11:02:20;12.20;;;4.50;;
51556;SDS011;38766;53.194;5.532;2023-02-11T11:04:48;20.92;;;4.90;;
51556;SDS011;38766;53.194;5.532;2023-02-11T11:07:24;19.27;;;4.63;;
51556;SDS011;38766;53.194;5.532;2023-02-11T11:09:53;18.08;;;4.72;;
51556;SDS011;38766;53.194;5.532;2023-02-11T11:14:59;13.55;;;4.50;;
51556;SDS011;38766;53.194;5.532;2023-02-11T11:17:27;14.02;;;3.72;;
51556;SDS011;38766;53.194;5.532;2023-02-11T11:20:00;14.02;;;4.22;;
51556;SDS011;38766;53.194;5.532;2023-02-11T11:22:44;14.65;;;4.57;;
51556;SDS011;38766;53.194;5.532;2023-02-11T11:25:26;15.55;;;4.20;;
51556;SDS011;38766;53.194;5.532;2023-02-11T11:27:57;13.90;;;4.32;;
51556;SDS011;38766;53.194;5.532;2023-02-11T11:30:32;15.60;;;4.15;;
51556;SDS011;38766;53.194;5.532;2023-02-11T11:33:03;17.67;;;4.63;;
51556;SDS011;38766;53.194;5.532;2023-02-11T11:35:39;21.73;;;5.32;;
51556;SDS011;38766;53.194;5.532;2023-02-11T11:38:05;13.73;;;4.65;;
51556;SDS011;38766;53.194;5.532;2023-02-11T11:40:34;15.25;;;4.00;;
51556;SDS011;38766;53.194;5.532;2023-02-11T11:43:18;11.15;;;4.38;;
51556;SDS011;38766;53.194;5.532;2023-02-11T11:45:51;16.20;;;4.38;;
51556;SDS011;38766;53.194;5.532;2023-02-11T11:56:13;18.70;;;4.20;;
51556;SDS011;38766;53.194;5.532;2023-02-11T11:58:48;13.60;;;3.83;;
51556;SDS011;38766;53.194;5.532;2023-02-11T12:01:25;15.90;;;4.13;;
51556;SDS011;38766;53.194;5.532;2023-02-11T12:09:26;18.75;;;4.07;;
51556;SDS011;38766;53.194;5.532;2023-02-11T12:15:03;14.55;;;4.22;;
51556;SDS011;38766;53.194;5.532;2023-02-11T12:30:53;13.18;;;3.85;;
51556;SDS011;38766;53.194;5.532;2023-02-11T12:39:22;17.92;;;3.85;;
51556;SDS011;38766;53.194;5.532;2023-02-11T12:45:16;15.10;;;3.65;;
51556;SDS011;38766;53.194;5.532;2023-02-11T12:50:55;15.77;;;3.38;;
51556;SDS011;38766;53.194;5.532;2023-02-11T12:58:57;13.02;;;3.63;;
51556;SDS011;38766;53.194;5.532;2023-02-11T13:01:29;16.08;;;3.88;;
51556;SDS011;38766;53.194;5.532;2023-02-11T13:04:13;11.80;;;3.47;;
51556;SDS011;38766;53.194;5.532;2023-02-11T13:06:59;12.25;;;3.90;;
51556;SDS011;38766;53.194;5.532;2023-02-11T13:09:31;14.02;;;2.95;;
51556;SDS011;38766;53.194;5.532;2023-02-11T13:12:02;10.82;;;3.00;;
51556;SDS011;38766;53.194;5.532;2023-02-11T13:14:53;13.13;;;3.40;;
51556;SDS011;38766;53.194;5.532;2023-02-11T13:20:44;14.90;;;3.08;;
51556;SDS011;38766;53.194;5.532;2023-02-11T13:25:56;11.68;;;3.53;;
51556;SDS011;38766;53.194;5.532;2023-02-11T13:31:11;20.27;;;4.43;;
51556;SDS011;38766;53.194;5.532;2023-02-11T13:33:39;15.40;;;3.55;;
51556;SDS011;38766;53.194;5.532;2023-02-11T13:38:34;14.40;;;3.88;;
51556;SDS011;38766;53.194;5.532;2023-02-11T13:43:28;12.23;;;3.30;;
51556;SDS011;38766;53.194;5.532;2023-02-11T13:46:00;15.85;;;3.10;;
51556;SDS011;38766;53.194;5.532;2023-02-11T13:48:38;13.50;;;3.97;;
51556;SDS011;38766;53.194;5.532;2023-02-11T13:51:16;15.03;;;3.33;;
51556;SDS011;38766;53.194;5.532;2023-02-11T13:53:57;10.35;;;3.15;;
51556;SDS011;38766;53.194;5.532;2023-02-11T13:56:27;19.00;;;3.25;;
51556;SDS011;38766;53.194;5.532;2023-02-11T13:59:01;10.75;;;3.58;;
51556;SDS011;38766;53.194;5.532;2023-02-11T14:01:39;13.20;;;4.13;;
51556;SDS011;38766;53.194;5.532;2023-02-11T14:04:30;13.30;;;3.03;;
51556;SDS011;38766;53.194;5.532;2023-02-11T14:07:28;9.23;;;3.30;;
51556;SDS011;38766;53.194;5.532;2023-02-11T14:10:56;15.43;;;3.67;;
51556;SDS011;38766;53.194;5.532;2023-02-11T14:16:36;17.95;;;2.70;;
51556;SDS011;38766;53.194;5.532;2023-02-11T14:21:09;8.32;;;2.95;;
51556;SDS011;38766;53.194;5.532;2023-02-11T14:43:24;10.95;;;3.50;;
51556;SDS011;38766;53.194;5.532;2023-02-11T14:45:54;8.93;;;2.75;;
51556;SDS011;38766;53.194;5.532;2023-02-11T14:48:22;16.75;;;2.97;;
51556;SDS011;38766;53.194;5.532;2023-02-11T14:50:57;16.27;;;3.45;;
51556;SDS011;38766;53.194;5.532;2023-02-11T14:53:25;14.75;;;3.20;;
51556;SDS011;38766;53.194;5.532;2023-02-11T14:55:54;11.18;;;3.42;;
51556;SDS011;38766;53.194;5.532;2023-02-11T14:58:22;9.57;;;2.75;;
51556;SDS011;38766;53.194;5.532;2023-02-11T15:06:17;13.85;;;2.75;;
51556;SDS011;38766;53.194;5.532;2023-02-11T15:08:49;12.93;;;2.83;;
51556;SDS011;38766;53.194;5.532;2023-02-11T15:11:21;16.15;;;3.75;;
51556;SDS011;38766;53.194;5.532;2023-02-11T15:13:49;15.60;;;3.75;;
51556;SDS011;38766;53.194;5.532;2023-02-11T15:16:16;8.57;;;3.47;;
51556;SDS011;38766;53.194;5.532;2023-02-11T15:18:49;11.52;;;3.38;;
51556;SDS011;38766;53.194;5.532;2023-02-11T15:21:19;15.75;;;3.53;;
51556;SDS011;38766;53.194;5.532;2023-02-11T15:24:03;12.45;;;2.97;;
51556;SDS011;38766;53.194;5.532;2023-02-11T15:26:44;14.15;;;2.78;;
51556;SDS011;38766;53.194;5.532;2023-02-11T15:31:52;13.98;;;3.22;;
51556;SDS011;38766;53.194;5.532;2023-02-11T15:34:43;8.35;;;2.88;;
51556;SDS011;38766;53.194;5.532;2023-02-11T15:37:13;12.45;;;3.20;;
51556;SDS011;38766;53.194;5.532;2023-02-11T15:39:46;19.27;;;3.42;;
51556;SDS011;38766;53.194;5.532;2023-02-11T15:42:25;10.98;;;3.03;;
51556;SDS011;38766;53.194;5.532;2023-02-11T15:47:49;11.30;;;2.92;;
51556;SDS011;38766;53.194;5.532;2023-02-11T15:50:24;8.07;;;2.55;;
51556;SDS011;38766;53.194;5.532;2023-02-11T15:52:56;13.27;;;2.97;;
51556;SDS011;38766;53.194;5.532;2023-02-11T15:55:26;14.90;;;3.42;;
51556;SDS011;38766;53.194;5.532;2023-02-11T15:57:54;18.30;;;3.17;;
51556;SDS011;38766;53.194;5.532;2023-02-11T16:00:23;18.90;;;3.60;;
51556;SDS011;38766;53.194;5.532;2023-02-11T16:02:52;11.90;;;2.67;;
51556;SDS011;38766;53.194;5.532;2023-02-11T16:08:00;13.40;;;3.60;;
51556;SDS011;38766;53.194;5.532;2023-02-11T16:10:57;11.20;;;3.67;;
51556;SDS011;38766;53.194;5.532;2023-02-11T16:13:26;13.10;;;3.13;;
51556;SDS011;38766;53.194;5.532;2023-02-11T16:16:01;16.48;;;3.00;;
51556;SDS011;38766;53.194;5.532;2023-02-11T16:21:13;13.75;;;3.28;;
51556;SDS011;38766;53.194;5.532;2023-02-11T16:23:41;15.55;;;3.05;;
51556;SDS011;38766;53.194;5.532;2023-02-11T16:29:00;11.40;;;3.05;;
51556;SDS011;38766;53.194;5.532;2023-02-11T16:31:31;15.57;;;3.22;;
51556;SDS011;38766;53.194;5.532;2023-02-11T16:34:00;17.88;;;4.00;;
51556;SDS011;38766;53.194;5.532;2023-02-11T16:36:29;13.38;;;3.33;;
51556;SDS011;38766;53.194;5.532;2023-02-11T16:38:54;11.80;;;3.00;;
51556;SDS011;38766;53.194;5.532;2023-02-11T16:41:20;18.02;;;3.05;;
51556;SDS011;38766;53.194;5.532;2023-02-11T16:43:46;11.52;;;2.83;;
51556;SDS011;38766;53.194;5.532;2023-02-11T16:46:13;10.55;;;2.42;;
51556;SDS011;38766;53.194;5.532;2023-02-11T16:48:39;10.45;;;2.88;;
51556;SDS011;38766;53.194;5.532;2023-02-11T16:51:11;11.73;;;2.75;;
51556;SDS011;38766;53.194;5.532;2023-02-11T16:53:36;15.60;;;3.08;;
51556;SDS011;38766;53.194;5.532;2023-02-11T16:56:05;13.90;;;2.90;;
51556;SDS011;38766;53.194;5.532;2023-02-11T16:58:35;12.80;;;2.95;;
51556;SDS011;38766;53.194;5.532;2023-02-11T17:01:01;10.02;;;2.80;;
51556;SDS011;38766;53.194;5.532;2023-02-11T17:03:26;14.10;;;2.83;;
51556;SDS011;38766;53.194;5.532;2023-02-11T17:05:53;10.95;;;3.00;;
51556;SDS011;38766;53.194;5.532;2023-02-11T17:08:19;16.17;;;4.00;;
51556;SDS011;38766;53.194;5.532;2023-02-11T17:10:44;16.00;;;2.55;;
51556;SDS011;38766;53.194;5.532;2023-02-11T17:13:10;13.65;;;2.60;;
51556;SDS011;38766;53.194;5.532;2023-02-11T17:15:35;14.50;;;2.80;;
51556;SDS011;38766;53.194;5.532;2023-02-11T17:18:01;12.20;;;3.40;;
51556;SDS011;38766;53.194;5.532;2023-02-11T17:20:28;20.15;;;3.50;;